KE2LU Weather Reports


Display with metric or nautical units.
time (UTC)temp
F
wind
direction
speed
MPH
gust
MPH
rain 1hr
in
rain 24hr
in
rain mn
in
humidity
%
barometer
mb
20240522212502 76 297 2.0 12.0 0.00 0.00 0.00 70 1007.6
20240522212001 76 266 5.0 10.0 0.00 0.00 0.00 69 1007.9
20240522211501 76 257 2.0 5.0 0.00 0.00 0.00 70 1007.5
20240522210502 76 91 1.0 3.0 0.00 0.00 0.00 71 1006.7
20240522210002 77 149 3.0 7.0 0.00 0.00 0.00 71 1006.9
20240522205002 75 123 1.0 5.0 0.00 0.00 0.00 79 1007.0
20240522204501 74 122 0.0 1.0 0.00 0.00 0.00 84 1006.9
20240522203502 74 122 0.0 2.0 0.00 0.00 0.00 81 1007.1
20240522203001 74 118 0.0 1.0 0.00 0.00 0.00 80 1007.6
20240522202502 75 203 0.0 1.0 0.00 0.00 0.00 78 1007.9
20240522202001 75 226 1.0 3.0 0.00 0.00 0.00 77 1008.1
20240522201502 76 226 1.0 2.0 0.00 0.00 0.00 74 1008.2
20240522200501 80 194 4.0 14.0 0.00 0.00 0.00 65 1008.6
20240522195502 84 279 5.0 13.0 0.00 0.00 0.00 54 1008.0
20240522194502 86 215 2.0 7.0 0.00 0.00 0.00 54 1007.7
20240522194002 87 151 3.0 12.0 0.00 0.00 0.00 52 1007.7
20240522193502 87 358 1.0 12.0 0.00 0.00 0.00 53 1007.7
20240522193002 87 113 4.0 10.0 0.00 0.00 0.00 50 1007.8
20240522192502 88 299 2.0 9.0 0.00 0.00 0.00 52 1007.8
20240522192002 89 207 4.0 13.0 0.00 0.00 0.00 48 1007.8
20240522191502 90 166 3.0 13.0 0.00 0.00 0.00 49 1007.6
20240522191002 90 183 3.0 8.0 0.00 0.00 0.00 47 1007.7
20240522190502 90 261 5.0 12.0 0.00 0.00 0.00 47 1007.8
20240522190002 90 25 1.0 7.0 0.00 0.00 0.00 54 1007.8
20240522185501 90 269 2.0 3.0 0.00 0.00 0.00 52 1007.9
20240522185002 90 255 3.0 9.0 0.00 0.00 0.00 49 1008.0
20240522184502 90 281 2.0 3.0 0.00 0.00 0.00 52 1008.1
20240522184002 90 225 1.0 6.0 0.00 0.00 0.00 51 1008.0
20240522183002 90 178 2.0 5.0 0.00 0.00 0.00 51 1008.0
20240522182502 90 185 3.0 8.0 0.00 0.00 0.00 52 1008.1
20240522181502 90 301 2.0 5.0 0.00 0.00 0.00 52 1008.2
20240522181002 90 269 3.0 12.0 0.00 0.00 0.00 51 1008.2
20240522180002 89 163 3.0 8.0 0.00 0.00 0.00 51 1008.2
20240522174503 89 242 2.0 12.0 0.00 0.00 0.00 50 1008.2
20240522173502 89 213 3.0 7.0 0.00 0.00 0.00 52 1008.2
20240522173002 89 323 3.0 10.0 0.00 0.00 0.00 52 1008.4
20240522172502 89 89 2.0 9.0 0.00 0.00 0.00 54 1008.4
20240522172002 89 278 3.0 9.0 0.00 0.00 0.00 54 1008.4
20240522171502 89 172 2.0 3.0 0.00 0.00 0.00 55 1008.5
20240522171002 89 161 2.0 10.0 0.00 0.00 0.00 52 1008.5
20240522170502 90 234 3.0 6.0 0.00 0.00 0.00 52 1008.5
20240522170002 90 126 2.0 3.0 0.00 0.00 0.00 56 1008.5
20240522165502 90 306 2.0 7.0 0.00 0.00 0.00 53 1008.6
20240522165002 90 96 2.0 7.0 0.00 0.00 0.00 53 1008.5
20240522164502 89 232 2.0 3.0 0.00 0.00 0.00 56 1008.5
20240522164002 89 120 2.0 5.0 0.00 0.00 0.00 56 1008.6
20240522163502 89 248 2.0 7.0 0.00 0.00 0.00 54 1008.7
20240522163003 88 203 3.0 8.0 0.00 0.00 0.00 56 1008.7
20240522162502 88 246 3.0 7.0 0.00 0.00 0.00 54 1008.9
20240522162002 88 121 3.0 8.0 0.00 0.00 0.00 57 1008.9
20240522161502 87 105 4.0 12.0 0.00 0.00 0.00 55 1008.9
20240522161002 88 103 2.0 8.0 0.00 0.00 0.00 58 1009.0
20240522160503 89 261 2.0 6.0 0.00 0.00 0.00 55 1009.0
20240522160002 89 205 2.0 5.0 0.00 0.00 0.00 58 1009.0
20240522155502 88 291 1.0 5.0 0.00 0.00 0.00 57 1009.2
20240522155003 88 252 2.0 6.0 0.00 0.00 0.00 56 1009.2
20240522154502 88 243 2.0 8.0 0.00 0.00 0.00 59 1009.3
20240522154002 88 206 2.0 8.0 0.00 0.00 0.00 58 1009.4
20240522153503 88 329 2.0 5.0 0.00 0.00 0.00 59 1009.4
20240522153002 88 164 3.0 9.0 0.00 0.00 0.00 57 1009.5
20240522152502 88 208 2.0 8.0 0.00 0.00 0.00 57 1009.6
20240522152002 88 153 1.0 9.0 0.00 0.00 0.00 58 1009.6
20240522150002 87 270 2.0 10.0 0.00 0.00 0.00 58 1009.8
20240522145503 87 140 2.0 5.0 0.00 0.00 0.00 62 1009.9
20240522145002 87 275 2.0 3.0 0.00 0.00 0.00 58 1009.9
20240522144002 87 154 2.0 9.0 0.00 0.00 0.00 60 1009.9
20240522143503 86 26 1.0 3.0 0.00 0.00 0.00 62 1009.8
20240522143002 86 173 2.0 7.0 0.00 0.00 0.00 60 1009.9
20240522142503 86 128 3.0 12.0 0.00 0.00 0.00 62 1009.9
20240522142002 85 171 3.0 3.0 0.00 0.00 0.00 62 1010.0
20240522141503 85 122 3.0 6.0 0.00 0.00 0.00 61 1010.1
20240522140002 84 221 2.0 5.0 0.00 0.00 0.00 65 1010.5
20240522135503 84 137 3.0 7.0 0.00 0.00 0.00 63 1010.5
20240522135002 84 149 2.0 7.0 0.00 0.00 0.00 65 1010.5
20240522134502 84 124 2.0 5.0 0.00 0.00 0.00 64 1010.5
20240522134002 83 117 2.0 5.0 0.00 0.00 0.00 64 1010.7
20240522133502 84 106 2.0 5.0 0.00 0.00 0.00 64 1010.7
20240522133002 83 214 1.0 3.0 0.00 0.00 0.00 66 1010.7
20240522132502 83 169 2.0 5.0 0.00 0.00 0.00 67 1010.7
20240522132002 83 126 2.0 3.0 0.00 0.00 0.00 65 1010.7
20240522131503 83 278 0.0 3.0 0.00 0.00 0.00 64 1010.6
20240522131002 82 124 1.0 5.0 0.00 0.00 0.00 66 1010.7
20240522130503 82 192 2.0 5.0 0.00 0.00 0.00 67 1010.8
20240522130002 81 102 1.0 3.0 0.00 0.00 0.00 69 1010.8
20240522125502 81 131 2.0 3.0 0.00 0.00 0.00 67 1010.8
20240522125002 81 198 1.0 2.0 0.00 0.00 0.00 67 1010.8
20240522124503 80 104 1.0 3.0 0.00 0.00 0.00 67 1010.8
20240522123503 79 133 1.0 3.0 0.00 0.00 0.00 70 1010.8
20240522123002 79 111 1.0 3.0 0.00 0.00 0.00 71 1010.8
20240522122503 78 124 2.0 3.0 0.00 0.00 0.00 70 1010.8
20240522121502 78 130 3.0 3.0 0.00 0.00 0.00 69 1010.9
20240522121002 78 141 2.0 3.0 0.00 0.00 0.00 67 1010.9
20240522120503 78 135 0.0 2.0 0.00 0.00 0.00 70 1011.1
20240522120002 77 100 1.0 3.0 0.00 0.00 0.00 71 1011.1
20240522115503 77 135 1.0 2.0 0.00 0.00 0.00 71 1011.1
20240522115002 77 63 0.0 2.0 0.00 0.00 0.00 73 1011.1
20240522114503 76 136 0.0 1.0 0.00 0.00 0.00 76 1011.0
20240522114003 75 140 0.0 2.0 0.00 0.00 0.00 74 1011.0
20240522113502 75 117 1.0 3.0 0.00 0.00 0.00 75 1011.0
20240522113003 74 105 0.0 2.0 0.00 0.00 0.00 78 1011.0
20240522112503 73 146 0.0 2.0 0.00 0.00 0.00 79 1011.0
20240522112002 71 116 1.0 3.0 0.00 0.00 0.00 80 1011.0
20240522111003 70 122 0.0 1.0 0.00 0.00 0.00 83 1010.9
20240522110502 69 124 1.0 2.0 0.00 0.00 0.00 83 1010.8
20240522110003 68 124 1.0 2.0 0.00 0.00 0.00 83 1010.8
20240522105503 68 135 0.0 2.0 0.00 0.00 0.00 84 1010.9
20240522105002 68 129 0.0 1.0 0.00 0.00 0.00 84 1010.9
20240522104503 67 129 1.0 1.0 0.00 0.00 0.00 85 1010.9
20240522103503 66 133 0.0 2.0 0.00 0.00 0.00 86 1010.9
20240522103002 65 130 1.0 3.0 0.00 0.00 0.00 87 1010.9
20240522102003 64 128 0.0 1.0 0.00 0.00 0.00 90 1010.9
20240522101503 64 129 0.0 0.0 0.00 0.00 0.00 90 1010.9
20240522101002 64 129 0.0 0.0 0.00 0.00 0.00 90 1011.0
20240522100503 64 129 0.0 0.0 0.00 0.00 0.00 90 1011.0
20240522100003 64 129 0.0 0.0 0.00 0.00 0.00 90 1010.9
20240522095003 64 129 0.0 0.0 0.00 0.00 0.00 89 1010.8
20240522094502 64 129 0.0 0.0 0.00 0.00 0.00 89 1010.9
20240522094003 64 129 0.0 0.0 0.00 0.00 0.00 89 1010.9
20240522093502 64 129 0.0 0.0 0.00 0.00 0.00 89 1010.9
20240522092503 64 129 0.0 0.0 0.00 0.00 0.00 89 1010.9
20240522092002 64 129 0.0 0.0 0.00 0.00 0.00 89 1011.0
20240522091503 64 129 0.0 0.0 0.00 0.00 0.00 89 1011.0
20240522091002 64 129 0.0 0.0 0.00 0.00 0.00 89 1011.0
20240522090503 64 129 0.0 0.0 0.00 0.00 0.00 89 1011.0
20240522090003 64 129 0.0 0.0 0.00 0.00 0.00 89 1011.0
20240522085502 65 129 0.0 0.0 0.00 0.00 0.00 90 1011.1
20240522085003 64 129 0.0 0.0 0.00 0.00 0.00 90 1011.0
20240522083503 64 129 0.0 0.0 0.00 0.00 0.00 91 1011.0
20240522083003 64 129 0.0 0.0 0.00 0.00 0.00 90 1010.9
20240522082503 64 129 0.0 0.0 0.00 0.00 0.00 91 1011.0
20240522081503 65 129 0.0 0.0 0.00 0.00 0.00 91 1010.9
20240522081003 65 129 0.0 0.0 0.00 0.00 0.00 91 1011.0
20240522080503 64 129 1.0 2.0 0.00 0.00 0.00 92 1011.0
20240522080003 64 141 0.0 1.0 0.00 0.00 0.00 92 1011.0
20240522075503 64 141 0.0 0.0 0.00 0.00 0.00 92 1011.0
20240522075002 64 96 0.0 1.0 0.00 0.00 0.00 92 1011.0
20240522074003 65 81 0.0 0.0 0.00 0.00 0.00 91 1010.9
20240522073503 65 6 0.0 1.0 0.00 0.00 0.00 91 1010.8
20240522073003 65 287 0.0 0.0 0.00 0.00 0.00 90 1010.8
20240522072503 65 287 0.0 0.0 0.00 0.00 0.00 90 1010.7
20240522072003 65 287 0.0 1.0 0.00 0.00 0.00 89 1010.6
20240522071503 66 287 0.0 0.0 0.00 0.00 0.00 89 1010.6
20240522070503 66 287 0.0 0.0 0.00 0.00 0.00 88 1010.4
20240522070003 66 287 0.0 0.0 0.00 0.00 0.00 89 1010.4
20240522065503 66 287 0.0 0.0 0.00 0.00 0.00 88 1010.4
20240522065003 66 287 0.0 0.0 0.00 0.00 0.00 88 1010.3
20240522064504 66 287 0.0 0.0 0.00 0.00 0.00 88 1010.3
20240522064003 66 287 0.0 0.0 0.00 0.00 0.00 88 1010.4
20240522063503 67 287 0.0 0.0 0.00 0.00 0.00 87 1010.5
20240522063003 67 287 0.0 0.0 0.00 0.00 0.00 87 1010.4
20240522062003 67 287 0.0 0.0 0.00 0.00 0.00 87 1010.5
20240522061503 67 287 0.0 0.0 0.00 0.00 0.00 87 1010.6
20240522060503 67 287 0.0 0.0 0.00 0.00 0.00 88 1010.6
20240522060003 67 287 0.0 1.0 0.00 0.00 0.00 88 1010.6
20240522055503 67 287 0.0 1.0 0.00 0.00 0.00 88 1010.5
20240522055003 67 286 0.0 0.0 0.00 0.00 0.00 88 1010.5
20240522053504 66 286 0.0 0.0 0.00 0.00 0.00 87 1010.4
20240522053003 66 286 0.0 0.0 0.00 0.00 0.00 87 1010.3
20240522052503 67 286 0.0 0.0 0.00 0.00 0.00 86 1010.4
20240522052003 67 286 0.0 0.0 0.00 0.00 0.00 86 1010.4
20240522051503 67 286 0.0 1.0 0.00 0.00 0.00 86 1010.4
20240522050503 67 286 0.0 0.0 0.00 0.00 0.00 85 1010.4
20240522050003 67 286 0.0 0.0 0.00 0.00 0.00 85 1010.3
20240522045503 67 286 0.0 0.0 0.00 0.00 0.00 84 1010.5
20240522045003 67 286 0.0 0.0 0.00 0.00 0.00 84 1010.5
20240522044503 67 286 0.0 0.0 0.00 0.00 0.00 84 1010.5
20240522044003 67 286 0.0 0.0 0.00 0.00 0.00 84 1010.4
20240522043503 67 286 0.0 0.0 0.00 0.00 0.00 85 1010.5
20240522042503 67 286 0.0 0.0 0.00 0.00 0.00 84 1010.4
20240522042004 67 286 0.0 0.0 0.00 0.00 0.00 84 1010.5
20240522041503 67 286 0.0 0.0 0.00 0.00 0.00 83 1010.6
20240522040003 68 286 0.0 0.0 0.00 0.00 0.00 83 1010.6
20240522035503 68 286 0.0 0.0 0.00 0.00 0.00 82 1010.6
20240522035003 68 286 0.0 0.0 0.00 0.00 0.00 82 1010.6
20240522034504 68 286 0.0 0.0 0.00 0.00 0.00 82 1010.5
20240522033003 68 286 0.0 0.0 0.00 0.00 0.00 82 1010.5
20240522032503 68 286 0.0 0.0 0.00 0.00 0.00 82 1010.5
20240522032003 68 293 0.0 0.0 0.00 0.00 0.00 82 1010.5
20240522031003 69 293 0.0 0.0 0.00 0.00 0.00 81 1010.4
20240522030503 69 293 0.0 0.0 0.00 0.00 0.00 81 1010.5
20240522025504 69 293 0.0 0.0 0.00 0.00 0.00 80 1010.7
20240522025003 69 293 0.0 0.0 0.00 0.00 0.00 79 1010.5
20240522024503 69 293 0.0 0.0 0.00 0.00 0.00 79 1010.6
20240522024004 69 293 0.0 0.0 0.00 0.00 0.00 79 1010.6
20240522023503 69 293 0.0 0.0 0.00 0.00 0.00 79 1010.7
20240522023003 69 293 0.0 0.0 0.00 0.00 0.00 79 1010.6
20240522021004 70 293 0.0 0.0 0.00 0.00 0.00 78 1010.7
20240522020503 70 293 0.0 0.0 0.00 0.00 0.00 78 1010.6
20240522020003 70 293 0.0 0.0 0.00 0.00 0.00 76 1010.7
20240522015003 71 293 0.0 0.0 0.00 0.00 0.00 75 1010.6
20240522014503 72 293 0.0 0.0 0.00 0.00 0.00 74 1010.5
20240522014004 72 293 0.0 0.0 0.00 0.00 0.00 73 1010.5
20240522013503 72 293 0.0 0.0 0.00 0.00 0.00 72 1010.4
20240522013004 73 293 0.0 0.0 0.00 0.00 0.00 71 1010.4
20240522012503 73 293 0.0 0.0 0.00 0.00 0.00 70 1010.4
20240522012004 74 293 0.0 0.0 0.00 0.00 0.00 69 1010.4
20240522011503 74 293 0.0 0.0 0.00 0.00 0.00 68 1010.4
20240522011003 75 293 0.0 0.0 0.00 0.00 0.00 67 1010.4
20240522010504 75 293 0.0 0.0 0.00 0.00 0.00 67 1010.4
20240522010004 76 293 0.0 2.0 0.00 0.00 0.00 66 1010.3
20240522005004 76 89 0.0 0.0 0.00 0.00 0.00 65 1010.3
20240522004003 77 112 0.0 0.0 0.00 0.00 0.00 64 1010.2
20240522003503 77 112 0.0 1.0 0.00 0.00 0.00 63 1010.1
20240522003004 78 110 0.0 1.0 0.00 0.00 0.00 62 1010.1
20240522002504 79 110 0.0 1.0 0.00 0.00 0.00 60 1010.1
20240522002004 79 122 0.0 2.0 0.00 0.00 0.00 60 1010.1
20240522001504 80 175 1.0 3.0 0.00 0.00 0.00 58 1010.1
20240522001003 80 194 1.0 3.0 0.00 0.00 0.00 58 1010.1
20240522000504 81 243 1.0 3.0 0.00 0.00 0.00 57 1010.1
20240522000004 81 215 1.0 5.0 0.00 0.00 0.00 57 1010.1
20240521235504 82 246 2.0 5.0 0.00 0.00 0.00 56 1010.1
20240521235003 82 263 2.0 7.0 0.00 0.00 0.00 55 1010.0
20240521234504 82 279 2.0 6.0 0.00 0.00 0.00 56 1010.2
20240521234003 82 286 3.0 12.0 0.00 0.00 0.00 55 1010.1
20240521233502 83 258 2.0 6.0 0.00 0.00 0.00 56 1010.1
20240521233001 83 291 2.0 5.0 0.00 0.00 0.00 54 1010.1
20240521232502 84 278 3.0 7.0 0.00 0.00 0.00 53 1010.2
20240521232001 84 285 2.0 7.0 0.00 0.00 0.00 53 1010.2
20240521231502 85 240 2.0 6.0 0.00 0.00 0.00 55 1010.3
20240521231002 85 309 3.0 8.0 0.00 0.00 0.00 54 1010.3
20240521230501 85 267 1.0 7.0 0.00 0.00 0.00 56 1010.2
20240521230002 85 219 1.0 6.0 0.00 0.00 0.00 57 1010.3
20240521225502 85 239 2.0 6.0 0.00 0.00 0.00 56 1010.2
20240521225002 85 268 2.0 6.0 0.00 0.00 0.00 57 1010.2
20240521224001 86 203 0.0 0.0 0.00 0.00 0.00 67 1010.1
20240521223502 85 203 0.0 2.0 0.00 0.00 0.00 68 1010.2
20240521223001 85 90 1.0 2.0 0.00 0.00 0.00 66 1010.2
20240521222501 84 146 0.0 0.0 0.00 0.00 0.00 69 1010.2
20240521222002 83 145 1.0 2.0 0.00 0.00 0.00 69 1010.2
20240521221502 83 119 1.0 2.0 0.00 0.00 0.00 68 1010.2
20240521221001 83 49 2.0 3.0 0.00 0.00 0.00 67 1010.3
20240521220002 82 83 1.0 2.0 0.00 0.00 0.00 71 1010.4
20240521215002 82 67 2.0 3.0 0.00 0.00 0.00 70 1010.5
20240521214502 82 68 1.0 3.0 0.00 0.00 0.00 71 1010.5
20240521214002 81 84 2.0 2.0 0.00 0.00 0.00 70 1010.4
20240521213502 81 81 2.0 3.0 0.00 0.00 0.00 71 1010.6
20240521213002 81 72 3.0 5.0 0.00 0.00 0.00 73 1010.5